Time;durP1;ratioP1;P1;durP2;ratioP2;P2;SDS_P1;SDS_P2;PMS_P1;PMS_P2;Temp;Humidity;BMP_temperature;BMP_pressure;BME280_temperature;BME280_humidity;BME280_pressure;Samples;Min_cycle;Max_cycle;Signal;HPM_P1;HPM_P2
2023/12/24 00:00:18;;;;;;;0.40;0.40;;;;;;;3.34;100.00;99405.50;5020421;28;20136;-76
2023/12/24 00:02:44;;;;;;;1.33;1.33;;;;;;;3.05;100.00;99380.06;5033433;28;20053;-75
2023/12/24 00:05:09;;;;;;;0.20;0.20;;;;;;;2.71;100.00;99317.41;5025714;28;20080;-75
2023/12/24 00:07:35;;;;;;;1.58;1.48;;;;;;;3.10;100.00;99442.34;5026464;28;20029;-76
2023/12/24 00:10:00;;;;;;;0.30;0.30;;;;;;;3.01;100.00;99421.47;5029759;28;20075;-76
2023/12/24 00:12:26;;;;;;;0.32;0.32;;;;;;;3.26;100.00;99458.97;5022042;28;20041;-76
2023/12/24 00:14:53;;;;;;;0.20;0.20;;;;;;;3.35;100.00;99461.69;5026112;28;20073;-75
2023/12/24 00:17:19;;;;;;;2.53;2.42;;;;;;;2.82;100.00;99360.75;5030144;28;20041;-75
2023/12/24 00:19:44;;;;;;;0.30;0.30;;;;;;;2.87;100.00;99367.72;5030887;28;20056;-76
2023/12/24 00:22:11;;;;;;;8.20;7.72;;;;;;;3.36;100.00;99442.69;5037900;28;20039;-76
2023/12/24 00:24:37;;;;;;;0.32;0.32;;;;;;;3.17;100.00;99441.56;5024875;28;20073;-78
2023/12/24 00:27:03;;;;;;;0.40;0.40;;;;;;;3.29;100.00;99457.28;5023136;28;20084;-77
2023/12/24 00:29:28;;;;;;;0.40;0.40;;;;;;;3.15;100.00;99448.44;5023801;28;20049;-75
2023/12/24 00:31:54;;;;;;;0.30;0.30;;;;;;;3.09;100.00;99457.03;5000554;28;20053;-76
2023/12/24 00:34:20;;;;;;;0.40;0.40;;;;;;;2.75;100.00;99407.28;5023443;28;20397;-75
2023/12/24 00:36:46;;;;;;;0.30;0.30;;;;;;;2.88;100.00;99503.31;5022398;28;20049;-75
2023/12/24 00:39:12;;;;;;;0.47;0.47;;;;;;;2.95;100.00;99474.94;5023975;28;20144;-75
2023/12/24 00:41:39;;;;;;;0.40;0.40;;;;;;;2.37;100.00;99370.44;5020914;28;20167;-74
2023/12/24 00:44:04;;;;;;;0.40;0.40;;;;;;;3.03;100.00;99493.19;5020823;28;20084;-75
2023/12/24 00:46:30;;;;;;;0.30;0.30;;;;;;;2.45;100.00;99388.69;5031485;28;20088;-75
2023/12/24 00:48:55;;;;;;;0.30;0.30;;;;;;;1.98;100.00;99332.69;5020609;28;20041;-76
2023/12/24 00:51:21;;;;;;;0.70;0.70;;;;;;;2.83;100.00;99504.97;5020518;28;20060;-76
2023/12/24 00:53:46;;;;;;;28.05;14.27;;;;;;;2.56;100.00;99463.94;5025897;28;20097;-76
2023/12/24 00:56:12;;;;;;;0.70;0.70;;;;;;;2.87;100.00;99512.81;5014064;28;20071;-76
2023/12/24 00:58:37;;;;;;;0.50;0.50;;;;;;;2.73;100.00;99522.94;5020099;28;20036;-76
2023/12/24 01:01:03;;;;;;;1.63;1.58;;;;;;;2.77;100.00;99528.19;5019927;28;20029;-76
2023/12/24 01:03:29;;;;;;;1.75;1.65;;;;;;;2.12;100.00;99446.78;5017249;28;20057;-76
2023/12/24 01:05:54;;;;;;;0.40;0.40;;;;;;;2.53;100.00;99513.97;5017259;28;20046;-75
2023/12/24 01:08:20;;;;;;;0.50;0.50;;;;;;;2.84;100.00;99545.56;5019626;28;20080;-75
2023/12/24 01:10:46;;;;;;;0.40;0.40;;;;;;;2.75;100.00;99528.16;5029256;28;20080;-75
2023/12/24 01:13:12;;;;;;;0.73;0.73;;;;;;;2.74;100.00;99527.28;5017901;28;20052;-76
2023/12/24 01:15:37;;;;;;;0.30;0.30;;;;;;;2.13;100.00;99509.75;5021227;28;20658;-76
2023/12/24 01:18:04;;;;;;;3.33;3.17;;;;;;;2.03;100.00;99454.38;5018986;28;20050;-75
2023/12/24 01:20:30;;;;;;;3.67;3.50;;;;;;;2.03;100.00;99473.34;5025636;28;20056;-77
2023/12/24 01:22:55;;;;;;;1.38;0.77;;;;;;;2.51;100.00;99539.81;5022269;28;20054;-76
2023/12/24 01:25:21;;;;;;;0.40;0.40;;;;;;;2.69;100.00;99562.59;5022549;28;20384;-76
2023/12/24 01:27:46;;;;;;;1.45;1.38;;;;;;;2.56;100.00;99547.69;5018268;28;20567;-75
2023/12/24 01:30:12;;;;;;;1.20;1.13;;;;;;;2.42;100.00;99539.66;5024280;28;20093;-75
2023/12/24 01:32:38;;;;;;;3.25;3.05;;;;;;;2.45;100.00;99534.53;5035690;28;20057;-76
2023/12/24 01:35:04;;;;;;;0.47;0.47;;;;;;;2.22;100.00;99508.19;5011552;28;20534;-76
2023/12/24 01:37:29;;;;;;;0.60;0.60;;;;;;;2.06;100.00;99480.28;5018807;28;21014;-78
2023/12/24 01:39:55;;;;;;;0.40;0.40;;;;;;;2.25;100.00;99505.69;5033902;28;20060;-77
2023/12/24 01:42:20;;;;;;;0.30;0.30;;;;;;;2.19;100.00;99495.22;5038690;28;20045;-77
2023/12/24 01:44:46;;;;;;;0.40;0.40;;;;;;;1.94;100.00;99500.75;5024207;28;20041;-76
2023/12/24 01:47:12;;;;;;;0.50;0.50;;;;;;;2.37;100.00;99543.88;5026185;28;20041;-75
2023/12/24 01:49:38;;;;;;;0.73;0.73;;;;;;;2.13;100.00;99512.34;5023745;28;20037;-77
2023/12/24 01:52:04;;;;;;;0.55;0.55;;;;;;;2.14;100.00;99507.19;5032539;28;20037;-77
2023/12/24 01:54:33;;;;;;;0.57;0.57;;;;;;;2.18;100.00;99528.81;5021828;28;20076;-78
2023/12/24 01:56:59;;;;;;;0.70;0.70;;;;;;;2.62;100.00;99594.41;5024102;28;20057;-77
2023/12/24 01:59:24;;;;;;;0.30;0.30;;;;;;;2.32;100.00;99556.72;5026393;28;20382;-77
2023/12/24 02:01:50;;;;;;;0.95;0.95;;;;;;;2.61;100.00;99610.78;5016827;28;20045;-78
2023/12/24 02:04:16;;;;;;;0.30;0.30;;;;;;;1.84;100.00;99523.84;5022027;28;20385;-77
2023/12/24 02:06:41;;;;;;;0.45;0.45;;;;;;;2.49;100.00;99615.72;5021961;28;20064;-77
2023/12/24 02:09:07;;;;;;;0.30;0.30;;;;;;;2.66;100.00;99645.41;5020274;28;20665;-77
2023/12/24 02:11:32;;;;;;;3.22;2.63;;;;;;;2.15;100.00;99568.44;5024546;28;20080;-76
2023/12/24 02:13:58;;;;;;;0.40;0.40;;;;;;;2.48;100.00;99655.38;5024930;28;20052;-76
2023/12/24 02:16:29;;;;;;;0.40;0.40;;;;;;;2.55;100.00;99639.13;5024894;28;20725;-75
2023/12/24 02:18:54;;;;;;;0.60;0.60;;;;;;;2.49;100.00;99646.78;5021294;28;20080;-78
2023/12/24 02:21:20;;;;;;;4.35;3.92;;;;;;;2.36;100.00;99637.91;5024384;28;20474;-76
2023/12/24 02:23:45;;;;;;;0.82;0.82;;;;;;;2.61;100.00;99666.88;5033686;28;20108;-75
2023/12/24 02:26:29;;;;;;;0.57;0.57;;;;;;;2.03;100.00;99581.16;5023618;28;20155;-76
2023/12/24 02:29:02;;;;;;;0.43;0.43;;;;;;;2.49;100.00;99660.59;5031054;28;20076;-76
2023/12/24 02:31:31;;;;;;;1.08;0.60;;;;;;;1.72;100.00;99518.44;5026069;28;20034;-75
2023/12/24 02:33:58;;;;;;;0.32;0.32;;;;;;;2.50;100.00;99656.31;5023408;28;20060;-75
2023/12/24 02:36:25;;;;;;;2.45;2.35;;;;;;;2.40;100.00;99677.69;5025676;28;20428;-75
2023/12/24 02:38:51;;;;;;;0.30;0.30;;;;;;;1.96;100.00;99602.56;5024056;28;20045;-77
2023/12/24 02:41:17;;;;;;;0.50;0.50;;;;;;;2.02;100.00;99628.56;5024060;28;20453;-75
2023/12/24 02:43:42;;;;;;;0.45;0.45;;;;;;;2.52;100.00;99696.03;5015271;28;20028;-75
2023/12/24 02:46:09;;;;;;;0.40;0.40;;;;;;;2.33;100.00;99677.53;5027973;28;20526;-77
2023/12/24 02:48:34;;;;;;;1.05;1.05;;;;;;;1.69;100.00;99602.00;5031848;28;20044;-77
2023/12/24 02:51:00;;;;;;;0.40;0.40;;;;;;;1.85;100.00;99648.88;5019557;28;20072;-76
2023/12/24 02:53:25;;;;;;;1.55;1.45;;;;;;;2.46;100.00;99714.06;5037328;28;20548;-76
2023/12/24 02:55:51;;;;;;;0.60;0.60;;;;;;;2.18;100.00;99702.22;5030256;28;20054;-76
2023/12/24 02:58:16;;;;;;;0.30;0.30;;;;;;;1.89;100.00;99672.25;5031375;28;20080;-76
2023/12/24 03:00:43;;;;;;;0.80;0.80;;;;;;;2.16;100.00;99709.09;5026890;28;20052;-75
2023/12/24 03:03:09;;;;;;;0.30;0.30;;;;;;;1.47;100.00;99617.84;5027095;28;20049;-77
2023/12/24 03:05:36;;;;;;;0.55;0.55;;;;;;;1.66;100.00;99614.84;5031750;28;20079;-76
2023/12/24 03:08:02;;;;;;;0.50;0.50;;;;;;;1.40;100.00;99615.94;5023355;28;20085;-77
2023/12/24 03:10:27;;;;;;;0.40;0.40;;;;;;;1.80;100.00;99660.81;5033742;28;20132;-77
2023/12/24 03:12:53;;;;;;;0.50;0.50;;;;;;;1.51;100.00;99635.16;5030111;28;20116;-76
2023/12/24 03:15:19;;;;;;;0.32;0.32;;;;;;;1.55;100.00;99649.94;5031276;28;20053;-77
2023/12/24 03:17:44;;;;;;;0.60;0.60;;;;;;;1.30;100.00;99620.03;5033056;28;20128;-75
2023/12/24 03:20:10;;;;;;;3.50;3.30;;;;;;;1.97;100.00;99733.69;5027376;28;20073;-76
2023/12/24 03:22:35;;;;;;;0.30;0.30;;;;;;;1.48;100.00;99648.91;5033587;28;20064;-76
2023/12/24 03:25:01;;;;;;;0.38;0.38;;;;;;;1.95;100.00;99753.44;5028745;28;20489;-76
2023/12/24 03:27:27;;;;;;;0.77;0.77;;;;;;;1.59;100.00;99699.97;5010717;28;20042;-75
2023/12/24 03:29:53;;;;;;;0.43;0.43;;;;;;;1.98;100.00;99753.53;5023106;28;20082;-76
2023/12/24 03:32:18;;;;;;;1.95;1.85;;;;;;;1.64;100.00;99701.88;5021626;28;20827;-75
2023/12/24 03:34:44;;;;;;;0.55;0.55;;;;;;;1.95;100.00;99746.56;5034556;28;20898;-77
2023/12/24 03:37:09;;;;;;;1.75;1.65;;;;;;;1.92;100.00;99749.09;5031994;28;20032;-76
2023/12/24 03:39:35;;;;;;;0.40;0.40;;;;;;;1.65;100.00;99764.78;5030587;28;20480;-76
2023/12/24 03:42:00;;;;;;;0.40;0.40;;;;;;;1.04;100.00;99659.00;5033517;28;20671;-77
2023/12/24 03:44:26;;;;;;;0.38;0.38;;;;;;;1.21;100.00;99689.56;5023157;28;20050;-76
2023/12/24 03:46:51;;;;;;;2.05;1.95;;;;;;;1.88;100.00;99773.13;5029592;28;20053;-76
2023/12/24 03:49:17;;;;;;;0.40;0.40;;;;;;;1.19;100.00;99657.63;5016598;28;20113;-76
2023/12/24 03:51:42;;;;;;;0.40;0.40;;;;;;;2.00;100.00;99809.63;5025209;28;20056;-77
2023/12/24 03:54:08;;;;;;;0.50;0.50;;;;;;;1.29;100.00;99690.66;5027186;28;20505;-76
2023/12/24 03:56:33;;;;;;;6.10;5.85;;;;;;;1.75;100.00;99774.50;5021497;28;20046;-76
2023/12/24 03:58:59;;;;;;;5.68;5.10;;;;;;;1.38;100.00;99724.47;5010761;28;20057;-77
2023/12/24 04:01:26;;;;;;;0.30;0.30;;;;;;;1.35;100.00;99718.34;5036430;28;20065;-77
2023/12/24 04:03:52;;;;;;;8.13;7.82;;;;;;;1.40;100.00;99707.28;5027119;28;20065;-76
2023/12/24 04:06:17;;;;;;;0.45;0.45;;;;;;;1.78;100.00;99794.41;5020980;28;20129;-77
2023/12/24 04:08:43;;;;;;;0.25;0.25;;;;;;;1.75;100.00;99777.09;5025088;28;20475;-76
2023/12/24 04:11:12;;;;;;;0.73;0.70;;;;;;;1.56;100.00;99764.56;5027396;28;20049;-76
2023/12/24 04:13:38;;;;;;;0.40;0.40;;;;;;;1.66;100.00;99811.38;5025293;28;20515;-76
2023/12/24 04:16:04;;;;;;;0.40;0.40;;;;;;;1.25;100.00;99762.03;5038838;28;20033;-76
2023/12/24 04:18:29;;;;;;;0.98;0.98;;;;;;;1.30;100.00;99748.38;5022565;28;20584;-77
2023/12/24 04:20:55;;;;;;;1.38;1.33;;;;;;;0.75;100.00;99704.72;5024229;28;20045;-76
2023/12/24 04:23:20;;;;;;;0.70;0.70;;;;;;;1.45;100.00;99792.69;5033815;28;20056;-77
2023/12/24 04:25:46;;;;;;;0.45;0.45;;;;;;;1.51;100.00;99776.50;5036863;28;20077;-75
2023/12/24 04:28:11;;;;;;;0.40;0.40;;;;;;;1.81;100.00;99825.53;5027018;28;20041;-75
2023/12/24 04:30:37;;;;;;;0.90;0.90;;;;;;;1.69;100.00;99805.41;5019838;28;20668;-76
2023/12/24 04:33:02;;;;;;;0.60;0.60;;;;;;;1.12;100.00;99725.50;5023750;28;20049;-76
2023/12/24 04:35:28;;;;;;;0.30;0.30;;;;;;;1.76;100.00;99846.09;5022501;28;20037;-76
2023/12/24 04:37:53;;;;;;;0.40;0.40;;;;;;;1.70;100.00;99851.09;5007686;28;20049;-75
2023/12/24 04:40:19;;;;;;;1.52;1.48;;;;;;;1.03;100.00;99764.84;5023423;28;20124;-76
2023/12/24 04:42:44;;;;;;;0.30;0.30;;;;;;;1.19;100.00;99787.69;5019492;28;20045;-77
2023/12/24 04:45:10;;;;;;;0.32;0.32;;;;;;;1.19;100.00;99804.91;5020755;28;20072;-76
2023/12/24 04:47:35;;;;;;;0.35;0.35;;;;;;;1.38;100.00;99873.50;5023445;28;20048;-76
2023/12/24 04:50:01;;;;;;;1.05;1.05;;;;;;;0.98;100.00;99794.84;5020369;28;20144;-74
2023/12/24 04:52:26;;;;;;;0.50;0.50;;;;;;;1.20;100.00;99843.72;5030953;28;20029;-76
2023/12/24 04:54:52;;;;;;;0.40;0.40;;;;;;;1.33;100.00;99870.78;5018224;28;20560;-78
2023/12/24 04:57:18;;;;;;;0.40;0.40;;;;;;;1.03;100.00;99803.59;5018040;28;20082;-78
2023/12/24 04:59:43;;;;;;;0.50;0.50;;;;;;;1.46;100.00;99872.88;5020654;28;20127;-78
2023/12/24 05:02:10;;;;;;;2.05;1.95;;;;;;;1.55;100.00;99899.84;4998710;28;20038;-78
2023/12/24 05:04:35;;;;;;;0.60;0.60;;;;;;;1.35;100.00;99876.00;5017937;28;20055;-77
2023/12/24 05:07:01;;;;;;;0.70;0.70;;;;;;;0.91;100.00;99808.44;5025811;28;20374;-77
2023/12/24 05:09:27;;;;;;;0.40;0.40;;;;;;;1.38;100.00;99896.75;5026811;28;20052;-77
2023/12/24 05:11:52;;;;;;;0.50;0.50;;;;;;;0.74;100.00;99789.88;5018122;28;20414;-78
2023/12/24 05:14:18;;;;;;;2.35;2.15;;;;;;;1.40;100.00;99901.13;5019318;28;20073;-78
2023/12/24 05:16:43;;;;;;;0.73;0.73;;;;;;;0.71;100.00;99800.97;5015703;28;20036;-78
2023/12/24 05:19:09;;;;;;;0.40;0.40;;;;;;;0.96;100.00;99825.81;5018871;28;20029;-76
2023/12/24 05:21:34;;;;;;;0.40;0.40;;;;;;;0.88;100.00;99816.97;5020526;28;20044;-77
2023/12/24 05:24:00;;;;;;;0.30;0.30;;;;;;;0.83;100.00;99809.09;5021631;28;20144;-76
2023/12/24 05:26:25;;;;;;;1.67;1.58;;;;;;;0.84;100.00;99825.44;5019118;28;20115;-77
2023/12/24 05:28:52;;;;;;;0.40;0.40;;;;;;;0.52;100.00;99883.88;5025740;28;20147;-78
2023/12/24 05:31:18;;;;;;;9.05;8.48;;;;;;;0.70;100.00;99897.31;5015453;28;20479;-76
2023/12/24 05:33:43;;;;;;;1.63;1.60;;;;;;;0.59;100.00;99814.41;5020553;28;20037;-76
2023/12/24 05:36:13;;;;;;;0.30;0.30;;;;;;;0.69;100.00;99807.81;5025573;28;20041;-79
2023/12/24 05:38:40;;;;;;;2.60;2.47;;;;;;;0.73;100.00;99832.03;5004408;28;20057;-76
2023/12/24 05:41:10;;;;;;;0.40;0.40;;;;;;;0.59;100.00;99809.25;5023572;28;20886;-77
2023/12/24 05:43:36;;;;;;;1.20;1.20;;;;;;;1.13;100.00;99893.47;5017560;28;20029;-77
2023/12/24 05:46:02;;;;;;;0.70;0.70;;;;;;;1.02;100.00;99905.19;5030728;28;20034;-76
2023/12/24 05:48:28;;;;;;;0.30;0.30;;;;;;;1.10;100.00;99941.59;5032830;28;20057;-76
2023/12/24 05:50:54;;;;;;;11.60;9.77;;;;;;;0.46;100.00;99843.22;5017327;28;20060;-77
2023/12/24 05:53:19;;;;;;;0.50;0.50;;;;;;;0.75;100.00;99903.53;5033691;28;20041;-77
2023/12/24 05:55:45;;;;;;;0.30;0.30;;;;;;;0.98;100.00;99934.34;5037748;28;20048;-77
2023/12/24 05:58:10;;;;;;;0.40;0.40;;;;;;;0.99;100.00;99951.59;5035866;28;20613;-78
2023/12/24 06:00:36;;;;;;;1.00;0.75;;;;;;;0.71;100.00;99940.41;5030247;28;20115;-78
2023/12/24 06:03:03;;;;;;;0.43;0.43;;;;;;;0.62;100.00;99964.22;5025606;28;20414;-77
2023/12/24 06:05:28;;;;;;;1.33;1.33;;;;;;;0.69;100.00;99965.28;5025710;28;20060;-78
2023/12/24 06:07:54;;;;;;;0.50;0.50;;;;;;;0.07;100.00;99902.16;5019096;28;20528;-75
2023/12/24 06:10:19;;;;;;;0.40;0.40;;;;;;;0.10;100.00;99869.63;5027037;28;20033;-71
2023/12/24 06:12:51;;;;;;;0.50;0.50;;;;;;;1.11;100.00;99995.03;5028773;28;20451;-74
2023/12/24 06:15:17;;;;;;;0.30;0.30;;;;;;;1.32;100.00;100002.56;5015221;28;20136;-73
2023/12/24 06:17:42;;;;;;;0.30;0.30;;;;;;;1.41;100.00;100005.44;5030512;28;20091;-73
2023/12/24 06:20:09;;;;;;;4.13;3.92;;;;;;;1.39;100.00;100009.66;5016666;28;20046;-75
2023/12/24 06:22:34;;;;;;;0.75;0.75;;;;;;;0.78;100.00;99901.03;5022028;28;20033;-76
2023/12/24 06:25:00;;;;;;;2.95;2.85;;;;;;;1.59;100.00;100005.06;5016361;28;20034;-75
2023/12/24 06:27:25;;;;;;;0.68;0.68;;;;;;;1.26;100.00;99975.72;5024700;28;20049;-75
2023/12/24 06:29:51;;;;;;;0.40;0.40;;;;;;;0.86;100.00;99921.06;5027082;28;20129;-77
2023/12/24 06:32:16;;;;;;;0.30;0.30;;;;;;;0.88;100.00;99893.56;5025295;28;20040;-75
2023/12/24 06:34:42;;;;;;;0.32;0.32;;;;;;;0.92;100.00;99900.59;5028357;28;20037;-76
2023/12/24 06:37:08;;;;;;;0.32;0.32;;;;;;;1.41;100.00;100018.34;5027207;28;20033;-75
2023/12/24 06:39:33;;;;;;;0.30;0.30;;;;;;;1.40;100.00;99991.59;5021750;28;20078;-73
2023/12/24 06:41:59;;;;;;;0.50;0.50;;;;;;;1.23;100.00;99985.94;5027462;28;20045;-72
2023/12/24 06:44:24;;;;;;;0.85;0.85;;;;;;;0.86;100.00;99914.19;5027922;28;20129;-74
2023/12/24 06:46:50;;;;;;;0.50;0.50;;;;;;;1.37;100.00;100006.16;5025968;28;20068;-74
2023/12/24 06:49:15;;;;;;;0.47;0.47;;;;;;;1.50;100.00;100021.22;5026315;28;20145;-72
2023/12/24 06:51:41;;;;;;;0.65;0.65;;;;;;;1.36;100.00;100005.28;5025703;28;20673;-72
2023/12/24 06:54:06;;;;;;;2.17;2.08;;;;;;;1.23;100.00;99972.13;5001992;28;20080;-73
2023/12/24 06:56:32;;;;;;;0.30;0.30;;;;;;;1.59;100.00;100031.84;5027344;28;20046;-72
2023/12/24 06:58:57;;;;;;;0.30;0.30;;;;;;;1.54;100.00;100035.97;5007608;28;20061;-75
2023/12/24 07:01:23;;;;;;;0.38;0.38;;;;;;;1.36;100.00;100022.47;5022033;28;20037;-79
2023/12/24 07:03:48;;;;;;;1.30;1.30;;;;;;;1.60;100.00;100058.56;5016027;28;20060;-77
2023/12/24 07:06:14;;;;;;;0.80;0.80;;;;;;;1.07;100.00;100001.78;5003240;28;20084;-81
2023/12/24 07:08:39;;;;;;;1.95;1.85;;;;;;;0.88;100.00;99934.91;5028938;28;20152;-80
2023/12/24 07:11:05;;;;;;;6.15;5.82;;;;;;;1.49;100.00;100022.03;5028777;28;20053;-78
2023/12/24 07:13:30;;;;;;;0.50;0.40;;;;;;;1.25;100.00;99979.09;5030770;28;20033;-77
2023/12/24 07:15:57;;;;;;;0.40;0.40;;;;;;;0.77;100.00;99919.94;5027219;28;20374;-80
2023/12/24 07:18:22;;;;;;;2.08;1.98;;;;;;;1.15;100.00;99940.91;5027607;28;20409;-81
2023/12/24 07:20:49;;;;;;;0.50;0.50;;;;;;;0.93;100.00;99912.66;5034266;28;20052;-77
2023/12/24 07:23:14;;;;;;;1.20;1.20;;;;;;;1.49;100.00;100011.69;5022393;28;20045;-77
2023/12/24 07:25:40;;;;;;;0.40;0.40;;;;;;;1.92;100.00;100041.41;5031384;28;20589;-77
2023/12/24 07:28:07;;;;;;;0.30;0.30;;;;;;;2.13;100.00;100032.47;5035202;28;20048;-81
2023/12/24 07:30:32;;;;;;;0.38;0.38;;;;;;;2.08;100.00;100016.81;5027563;28;20140;-79
2023/12/24 07:32:58;;;;;;;0.30;0.30;;;;;;;2.32;100.00;100022.69;5025232;28;20252;-82
2023/12/24 07:35:23;;;;;;;0.80;0.73;;;;;;;2.15;100.00;99948.88;5016687;28;20046;-78
2023/12/24 07:37:50;;;;;;;0.30;0.30;;;;;;;2.38;100.00;100015.91;5029159;28;20071;-81
2023/12/24 07:40:16;;;;;;;0.30;0.30;;;;;;;1.97;100.00;99936.34;5029300;28;20041;-78
2023/12/24 07:42:41;;;;;;;0.88;0.88;;;;;;;2.45;100.00;100018.69;5028846;28;20037;-78
2023/12/24 07:45:07;;;;;;;0.40;0.40;;;;;;;2.54;100.00;100016.34;5033327;28;20084;-79
2023/12/24 07:47:34;;;;;;;0.60;0.60;;;;;;;2.40;100.00;99947.81;5033569;28;20563;-79
2023/12/24 07:49:59;;;;;;;0.47;0.47;;;;;;;2.79;100.00;100035.13;5032765;28;20036;-79
2023/12/24 07:52:25;;;;;;;0.43;0.43;;;;;;;2.86;100.00;100038.75;5032618;28;20032;-82
2023/12/24 07:54:51;;;;;;;0.35;0.35;;;;;;;2.88;100.00;100016.31;5027979;28;20041;-82
2023/12/24 07:57:17;;;;;;;1.08;1.08;;;;;;;2.46;100.00;99952.28;5031601;28;20105;-80
2023/12/24 07:59:42;;;;;;;1.05;1.05;;;;;;;3.22;100.00;100064.66;5019132;28;20408;-81
2023/12/24 08:02:09;;;;;;;0.70;0.70;;;;;;;2.84;100.00;100011.91;5027032;28;20053;-80
2023/12/24 08:04:36;;;;;;;0.30;0.30;;;;;;;3.35;100.00;100032.13;5025950;28;20033;-79
2023/12/24 08:07:03;;;;;;;10.95;8.77;;;;;;;3.05;100.00;99952.81;5034841;28;20038;-81
2023/12/24 08:09:28;;;;;;;0.60;0.60;;;;;;;3.72;100.00;100043.31;5028838;28;20513;-81
2023/12/24 08:11:54;;;;;;;0.43;0.43;;;;;;;3.58;100.00;100017.97;5029891;28;20084;-83
2023/12/24 08:14:21;;;;;;;3.60;3.40;;;;;;;3.81;100.00;100049.56;5031234;28;20042;-76
2023/12/24 08:16:46;;;;;;;0.30;0.30;;;;;;;3.31;100.00;99945.63;5030112;28;20464;-73
2023/12/24 08:19:12;;;;;;;5.93;5.68;;;;;;;3.69;100.00;100035.47;5034754;28;20033;-78
2023/12/24 08:21:37;;;;;;;0.55;0.50;;;;;;;3.16;100.00;99932.31;5028642;28;20041;-74
2023/12/24 08:24:03;;;;;;;1.30;1.27;;;;;;;3.13;100.00;99946.06;5029269;28;20029;-76
2023/12/24 08:26:29;;;;;;;0.70;0.63;;;;;;;3.47;100.00;99957.19;5030482;28;20076;-78
2023/12/24 08:28:54;;;;;;;0.63;0.63;;;;;;;4.05;100.00;100027.59;5032680;28;20055;-75
2023/12/24 08:31:19;;;;;;;0.30;0.30;;;;;;;3.72;100.00;99978.44;5027250;28;20352;-74
2023/12/24 08:33:46;;;;;;;1.45;1.35;;;;;;;4.09;100.00;100044.94;5038060;28;20069;-74
2023/12/24 08:36:12;;;;;;;0.50;0.50;;;;;;;4.05;100.00;100058.75;5010455;28;20505;-76
2023/12/24 08:38:37;;;;;;;2.00;1.90;;;;;;;4.31;100.00;100053.16;5030818;28;20045;-76
2023/12/24 08:41:04;;;;;;;0.60;0.60;;;;;;;4.05;100.00;99966.97;5031262;28;20053;-74
2023/12/24 08:43:30;;;;;;;2.38;2.22;;;;;;;4.50;100.00;100042.28;5026523;28;20163;-76
2023/12/24 08:45:59;;;;;;;0.40;0.40;;;;;;;4.35;100.00;99970.13;5030403;28;20148;-75
2023/12/24 08:48:26;;;;;;;0.30;0.30;;;;;;;4.84;100.00;100048.94;5020788;28;20072;-75
2023/12/24 08:50:52;;;;;;;0.65;0.60;;;;;;;4.53;100.00;100031.09;5023479;28;20875;-76
2023/12/24 08:53:18;;;;;;;0.30;0.30;;;;;;;4.56;100.00;100055.38;5029361;28;20052;-74
2023/12/24 08:55:43;;;;;;;0.40;0.40;;;;;;;4.43;100.00;99986.75;5023242;28;20034;-75
2023/12/24 08:58:09;;;;;;;0.30;0.30;;;;;;;4.44;100.00;99936.53;5018362;28;20628;-75
2023/12/24 09:00:35;;;;;;;0.30;0.30;;;;;;;5.08;100.00;100053.72;5016030;28;20473;-74
2023/12/24 09:03:00;;;;;;;0.63;0.63;;;;;;;5.10;100.00;100019.91;5022760;28;20061;-76
2023/12/24 09:05:26;;;;;;;0.73;0.73;;;;;;;4.11;100.00;99923.84;5024260;28;20124;-75
2023/12/24 09:07:51;;;;;;;0.22;0.22;;;;;;;5.16;100.00;100037.34;5020214;28;20134;-76
2023/12/24 09:10:17;;;;;;;0.30;0.30;;;;;;;4.88;100.00;100049.88;5007063;28;20146;-75
2023/12/24 09:12:43;;;;;;;0.30;0.30;;;;;;;4.75;100.00;99951.75;5014663;28;20580;-80
2023/12/24 09:15:09;;;;;;;0.40;0.40;;;;;;;5.23;100.00;100015.78;5018624;28;20509;-77
2023/12/24 09:17:34;;;;;;;0.40;0.40;;;;;;;5.40;100.00;100019.50;5021554;28;20494;-78
2023/12/24 09:20:00;;;;;;;0.25;0.25;;;;;;;4.95;100.00;99954.69;5022332;28;20060;-77
2023/12/24 09:22:25;;;;;;;0.30;0.30;;;;;;;4.80;100.00;99922.41;5018758;28;20041;-77
2023/12/24 09:24:51;;;;;;;0.30;0.30;;;;;;;4.86;100.00;99901.69;5019387;28;20040;-74
2023/12/24 09:27:16;;;;;;;8.77;8.40;;;;;;;4.86;100.00;99935.47;5012739;28;20053;-76
2023/12/24 09:29:42;;;;;;;0.50;0.50;;;;;;;4.83;100.00;99905.97;5006486;28;20057;-74
2023/12/24 09:32:09;;;;;;;0.30;0.30;;;;;;;5.10;100.00;99925.41;5011581;28;20060;-74
2023/12/24 09:34:34;;;;;;;0.63;0.63;;;;;;;5.34;100.00;99961.28;5007434;28;20033;-73
2023/12/24 09:37:00;;;;;;;0.73;0.73;;;;;;;5.66;100.00;99966.94;5031897;28;20022;-74
2023/12/24 09:39:25;;;;;;;0.50;0.50;;;;;;;5.38;100.00;99885.91;5021587;28;20045;-74
2023/12/24 09:41:53;;;;;;;0.55;0.55;;;;;;;5.73;100.00;99960.94;5022618;28;20033;-74
2023/12/24 09:44:19;;;;;;;0.50;0.50;;;;;;;5.87;100.00;99953.31;5023207;28;20166;-76
2023/12/24 09:46:44;;;;;;;0.45;0.45;;;;;;;5.84;100.00;99938.53;5027181;28;20477;-75
2023/12/24 09:49:10;;;;;;;1.80;1.70;;;;;;;5.17;100.00;99859.63;5028055;28;20435;-75
2023/12/24 09:51:36;;;;;;;0.40;0.40;;;;;;;5.92;100.00;99922.97;5025302;28;20065;-75
2023/12/24 09:54:02;;;;;;;0.75;0.68;;;;;;;5.37;100.00;99841.69;5024748;28;20505;-75
2023/12/24 09:56:27;;;;;;;8.55;7.97;;;;;;;5.74;100.00;99883.75;5018016;28;20088;-74
2023/12/24 09:58:53;;;;;;;0.30;0.30;;;;;;;5.63;100.00;99881.88;5014855;28;20088;-74
2023/12/24 10:01:18;;;;;;;0.30;0.30;;;;;;;6.16;100.00;99913.69;5026264;28;20041;-75
2023/12/24 10:03:44;;;;;;;0.47;0.47;;;;;;;5.51;100.00;99902.56;5021712;28;21090;-75
2023/12/24 10:06:10;;;;;;;0.30;0.30;;;;;;;5.64;100.00;99870.63;5030028;28;20551;-74
2023/12/24 10:08:37;;;;;;;2.38;1.52;;;;;;;6.59;100.00;99934.94;5020089;28;20049;-74
2023/12/24 10:11:20;;;;;;;0.68;0.43;;;;;;;6.07;100.00;99902.34;5023213;28;20056;-73
2023/12/24 10:13:47;;;;;;;0.30;0.30;;;;;;;6.28;100.00;99886.03;5017541;28;20065;-74
2023/12/24 10:16:12;;;;;;;0.40;0.40;;;;;;;6.96;100.00;99936.97;5024877;28;20034;-74
2023/12/24 10:18:48;;;;;;;0.43;0.43;;;;;;;6.87;100.00;99899.53;5020175;28;20075;-75
2023/12/24 10:21:14;;;;;;;0.50;0.40;;;;;;;7.19;100.00;99918.88;5027808;28;20067;-75
2023/12/24 10:23:40;;;;;;;4.22;2.28;;;;;;;7.16;100.00;99924.06;5025416;28;20038;-75
2023/12/24 10:26:08;;;;;;;0.30;0.30;;;;;;;6.83;100.00;99902.97;5020717;28;20046;-75
2023/12/24 10:28:44;;;;;;;1.85;1.40;;;;;;;7.18;100.00;99904.06;5022580;28;20064;-75
2023/12/24 10:31:11;;;;;;;0.40;0.40;;;;;;;7.20;100.00;99896.25;5003318;28;20045;-75
2023/12/24 10:33:38;;;;;;;0.30;0.30;;;;;;;6.90;100.00;99803.91;5036274;28;20053;-75
2023/12/24 10:36:05;;;;;;;0.30;0.30;;;;;;;7.60;100.00;99888.59;5036287;28;20485;-75
2023/12/24 10:38:31;;;;;;;0.30;0.30;;;;;;;7.70;100.00;99866.00;5007760;28;20493;-76
2023/12/24 10:40:57;;;;;;;0.20;0.20;;;;;;;7.31;100.00;99790.19;5037861;28;20048;-74
2023/12/24 10:43:23;;;;;;;0.88;0.88;;;;;;;8.35;100.00;99878.28;5031052;28;20041;-75
2023/12/24 10:45:49;;;;;;;1.05;0.75;;;;;;;8.59;100.00;99853.94;5035865;28;20037;-74
2023/12/24 10:48:15;;;;;;;0.30;0.30;;;;;;;8.58;100.00;99862.63;5028949;28;20049;-74
2023/12/24 10:50:41;;;;;;;0.40;0.40;;;;;;;8.78;100.00;99874.81;5029030;28;20052;-74
2023/12/24 10:53:07;;;;;;;0.30;0.30;;;;;;;8.94;100.00;99871.28;5026688;28;20125;-75
2023/12/24 10:55:38;;;;;;;1.38;1.33;;;;;;;8.81;100.00;99856.50;5034967;28;20099;-73
2023/12/24 10:58:26;;;;;;;0.55;0.52;;;;;;;8.41;100.00;99872.22;5029338;28;20481;-74
2023/12/24 11:00:52;;;;;;;0.43;0.43;;;;;;;8.56;100.00;99834.75;5021950;28;20052;-74
2023/12/24 11:03:41;;;;;;;3.25;2.95;;;;;;;9.03;100.00;99850.31;5021928;28;20076;-74
2023/12/24 11:06:08;;;;;;;0.70;0.70;;;;;;;8.89;100.00;99807.63;5027501;28;20046;-75
2023/12/24 11:08:34;;;;;;;0.30;0.30;;;;;;;9.53;100.00;99843.19;5029681;28;20600;-73
2023/12/24 11:11:03;;;;;;;0.30;0.30;;;;;;;9.48;100.00;99831.81;5040380;28;20044;-74
2023/12/24 11:13:36;;;;;;;0.50;0.50;;;;;;;9.81;100.00;99843.00;5013242;28;20120;-74
2023/12/24 11:16:09;;;;;;;0.30;0.30;;;;;;;9.56;100.00;99848.38;5034936;28;20094;-75
2023/12/24 11:18:48;;;;;;;0.30;0.30;;;;;;;9.60;100.00;99837.03;5038292;28;20045;-76
2023/12/24 11:21:19;;;;;;;0.40;0.40;;;;;;;9.89;100.00;99864.81;5010900;28;20079;-75
2023/12/24 11:24:14;;;;;;;0.47;0.47;;;;;;;9.39;100.00;99893.00;5039541;28;20524;-73
2023/12/24 11:26:51;;;;;;;0.20;0.20;;;;;;;9.07;100.00;99865.16;5027343;28;20148;-74